sensor_id;sensor_type;location;lat;lon;timestamp;pressure;altitude;pressure_sealevel;temperature;humidity
36062;BME280;22123;52.412;20.970;2023-04-01T00:01:13;98732.59;;;8.93;100.00
36062;BME280;22123;52.412;20.970;2023-04-01T00:03:40;98684.88;;;8.62;100.00
36062;BME280;22123;52.412;20.970;2023-04-01T00:06:06;98703.22;;;8.72;100.00
36062;BME280;22123;52.412;20.970;2023-04-01T00:08:32;98721.00;;;8.86;100.00
36062;BME280;22123;52.412;20.970;2023-04-01T00:10:58;98727.44;;;8.85;100.00
36062;BME280;22123;52.412;20.970;2023-04-01T00:13:24;98687.56;;;8.68;100.00
36062;BME280;22123;52.412;20.970;2023-04-01T00:15:51;98719.38;;;8.85;100.00
36062;BME280;22123;52.412;20.970;2023-04-01T00:18:17;98689.38;;;8.61;100.00
36062;BME280;22123;52.412;20.970;2023-04-01T00:20:45;98697.06;;;8.71;100.00
36062;BME280;22123;52.412;20.970;2023-04-01T00:23:11;98696.03;;;8.72;100.00
36062;BME280;22123;52.412;20.970;2023-04-01T00:25:37;98707.59;;;8.79;100.00
36062;BME280;22123;52.412;20.970;2023-04-01T00:28:03;98694.38;;;8.71;100.00
36062;BME280;22123;52.412;20.970;2023-04-01T00:30:29;98723.50;;;8.87;100.00
36062;BME280;22123;52.412;20.970;2023-04-01T00:32:54;98672.47;;;8.67;100.00
36062;BME280;22123;52.412;20.970;2023-04-01T00:35:20;98709.25;;;8.87;100.00
36062;BME280;22123;52.412;20.970;2023-04-01T00:37:46;98645.22;;;8.57;100.00
36062;BME280;22123;52.412;20.970;2023-04-01T00:40:33;98707.81;;;8.98;100.00
36062;BME280;22123;52.412;20.970;2023-04-01T00:42:59;98702.28;;;8.99;100.00
36062;BME280;22123;52.412;20.970;2023-04-01T00:45:34;98667.13;;;8.74;100.00
36062;BME280;22123;52.412;20.970;2023-04-01T00:48:05;98702.84;;;8.95;100.00
36062;BME280;22123;52.412;20.970;2023-04-01T00:50:34;98669.38;;;8.64;100.00
36062;BME280;22123;52.412;20.970;2023-04-01T00:53:01;98708.88;;;8.97;100.00
36062;BME280;22123;52.412;20.970;2023-04-01T00:55:31;98715.47;;;8.94;100.00
36062;BME280;22123;52.412;20.970;2023-04-01T00:57:58;98711.13;;;8.93;100.00
36062;BME280;22123;52.412;20.970;2023-04-01T01:00:25;98660.72;;;8.62;100.00
36062;BME280;22123;52.412;20.970;2023-04-01T01:02:52;98703.47;;;8.83;100.00
36062;BME280;22123;52.412;20.970;2023-04-01T01:05:23;98664.44;;;8.67;100.00
36062;BME280;22123;52.412;20.970;2023-04-01T01:08:15;98648.94;;;8.63;100.00
36062;BME280;22123;52.412;20.970;2023-04-01T01:10:48;98674.78;;;8.77;100.00
36062;BME280;22123;52.412;20.970;2023-04-01T01:15:53;98676.84;;;8.82;100.00
36062;BME280;22123;52.412;20.970;2023-04-01T01:18:41;98698.34;;;8.95;100.00
36062;BME280;22123;52.412;20.970;2023-04-01T01:26:49;98693.78;;;8.96;100.00
36062;BME280;22123;52.412;20.970;2023-04-01T01:37:12;98678.28;;;8.78;100.00
36062;BME280;22123;52.412;20.970;2023-04-01T01:39:42;98683.25;;;8.81;100.00
36062;BME280;22123;52.412;20.970;2023-04-01T01:42:11;98698.94;;;8.91;100.00
36062;BME280;22123;52.412;20.970;2023-04-01T01:44:40;98687.97;;;8.79;100.00
36062;BME280;22123;52.412;20.970;2023-04-01T01:47:08;98636.13;;;8.45;100.00
36062;BME280;22123;52.412;20.970;2023-04-01T01:49:35;98695.00;;;8.80;100.00
36062;BME280;22123;52.412;20.970;2023-04-01T01:52:02;98700.78;;;8.83;100.00
36062;BME280;22123;52.412;20.970;2023-04-01T01:54:28;98690.06;;;8.77;100.00
36062;BME280;22123;52.412;20.970;2023-04-01T01:57:04;98704.09;;;8.85;100.00
36062;BME280;22123;52.412;20.970;2023-04-01T01:59:32;98680.75;;;8.73;100.00
36062;BME280;22123;52.412;20.970;2023-04-01T02:02:00;98685.72;;;8.82;100.00
36062;BME280;22123;52.412;20.970;2023-04-01T02:04:27;98683.03;;;8.76;100.00
36062;BME280;22123;52.412;20.970;2023-04-01T02:06:59;98693.78;;;8.96;100.00
36062;BME280;22123;52.412;20.970;2023-04-01T02:09:28;98685.53;;;8.97;100.00
36062;BME280;22123;52.412;20.970;2023-04-01T02:11:59;98687.59;;;8.95;100.00
36062;BME280;22123;52.412;20.970;2023-04-01T02:14:30;98678.09;;;8.93;100.00
36062;BME280;22123;52.412;20.970;2023-04-01T02:17:07;98680.34;;;8.89;100.00
36062;BME280;22123;52.412;20.970;2023-04-01T02:19:38;98679.13;;;8.92;100.00
36062;BME280;22123;52.412;20.970;2023-04-01T02:22:09;98673.16;;;8.90;100.00
36062;BME280;22123;52.412;20.970;2023-04-01T02:24:37;98637.63;;;8.74;100.00
36062;BME280;22123;52.412;20.970;2023-04-01T02:27:05;98663.63;;;8.87;100.00
36062;BME280;22123;52.412;20.970;2023-04-01T02:29:31;98673.53;;;8.93;100.00
36062;BME280;22123;52.412;20.970;2023-04-01T02:31:58;98668.59;;;8.90;100.00
36062;BME280;22123;52.412;20.970;2023-04-01T02:34:24;98673.97;;;8.97;100.00
36062;BME280;22123;52.412;20.970;2023-04-01T02:36:51;98675.59;;;8.98;100.00
36062;BME280;22123;52.412;20.970;2023-04-01T02:39:17;98646.94;;;8.85;100.00
36062;BME280;22123;52.412;20.970;2023-04-01T02:41:44;98651.69;;;8.90;100.00
36062;BME280;22123;52.412;20.970;2023-04-01T02:44:12;98638.66;;;8.80;100.00
36062;BME280;22123;52.412;20.970;2023-04-01T02:46:39;98647.75;;;8.85;100.00
36062;BME280;22123;52.412;20.970;2023-04-01T02:49:05;98665.91;;;8.90;100.00
36062;BME280;22123;52.412;20.970;2023-04-01T02:51:31;98621.91;;;8.64;100.00
36062;BME280;22123;52.412;20.970;2023-04-01T02:53:57;98618.19;;;8.59;100.00
36062;BME280;22123;52.412;20.970;2023-04-01T02:56:23;98668.00;;;8.88;100.00
36062;BME280;22123;52.412;20.970;2023-04-01T02:58:49;98633.91;;;8.68;100.00
36062;BME280;22123;52.412;20.970;2023-04-01T03:01:15;98631.63;;;8.65;100.00
36062;BME280;22123;52.412;20.970;2023-04-01T03:03:41;98636.59;;;8.68;100.00
36062;BME280;22123;52.412;20.970;2023-04-01T03:06:08;98598.78;;;8.43;100.00
36062;BME280;22123;52.412;20.970;2023-04-01T03:08:35;98652.50;;;8.77;100.00
36062;BME280;22123;52.412;20.970;2023-04-01T03:11:01;98628.53;;;8.62;100.00
36062;BME280;22123;52.412;20.970;2023-04-01T03:13:27;98644.41;;;8.70;100.00
36062;BME280;22123;52.412;20.970;2023-04-01T03:15:52;98645.28;;;8.70;100.00
36062;BME280;22123;52.412;20.970;2023-04-01T03:18:19;98631.03;;;8.63;100.00
36062;BME280;22123;52.412;20.970;2023-04-01T03:20:45;98661.59;;;8.82;100.00
36062;BME280;22123;52.412;20.970;2023-04-01T03:23:11;98678.28;;;8.98;100.00
36062;BME280;22123;52.412;20.970;2023-04-01T03:25:37;98686.34;;;8.98;100.00
36062;BME280;22123;52.412;20.970;2023-04-01T03:28:03;98655.56;;;8.80;100.00
36062;BME280;22123;52.412;20.970;2023-04-01T03:30:30;98637.00;;;8.65;100.00
36062;BME280;22123;52.412;20.970;2023-04-01T03:32:55;98649.00;;;8.76;100.00
36062;BME280;22123;52.412;20.970;2023-04-01T03:35:21;98646.28;;;8.69;100.00
36062;BME280;22123;52.412;20.970;2023-04-01T03:37:47;98697.50;;;8.95;100.00
36062;BME280;22123;52.412;20.970;2023-04-01T03:40:13;98659.28;;;8.73;100.00
36062;BME280;22123;52.412;20.970;2023-04-01T03:42:39;98686.56;;;8.90;100.00
36062;BME280;22123;52.412;20.970;2023-04-01T03:45:05;98670.44;;;8.83;100.00
36062;BME280;22123;52.412;20.970;2023-04-01T03:47:31;98686.75;;;8.95;100.00
36062;BME280;22123;52.412;20.970;2023-04-01T03:49:57;98667.34;;;8.73;100.00
36062;BME280;22123;52.412;20.970;2023-04-01T03:52:23;98670.03;;;8.73;100.00
36062;BME280;22123;52.412;20.970;2023-04-01T03:54:48;98647.91;;;8.57;100.00
36062;BME280;22123;52.412;20.970;2023-04-01T03:57:14;98649.16;;;8.55;100.00
36062;BME280;22123;52.412;20.970;2023-04-01T03:59:40;98704.91;;;8.86;100.00
36062;BME280;22123;52.412;20.970;2023-04-01T04:02:06;98693.34;;;8.79;100.00
36062;BME280;22123;52.412;20.970;2023-04-01T04:04:32;98715.03;;;8.91;100.00
36062;BME280;22123;52.412;20.970;2023-04-01T04:06:58;98662.97;;;8.58;100.00
36062;BME280;22123;52.412;20.970;2023-04-01T04:09:24;98714.41;;;8.88;100.00
36062;BME280;22123;52.412;20.970;2023-04-01T04:11:50;98698.09;;;8.77;100.00
36062;BME280;22123;52.412;20.970;2023-04-01T04:14:16;98723.91;;;8.98;100.00
36062;BME280;22123;52.412;20.970;2023-04-01T04:16:42;98691.47;;;8.73;100.00
36062;BME280;22123;52.412;20.970;2023-04-01T04:19:08;98698.72;;;8.79;100.00
36062;BME280;22123;52.412;20.970;2023-04-01T04:21:34;98707.81;;;8.91;100.00
36062;BME280;22123;52.412;20.970;2023-04-01T04:24:00;98732.00;;;9.04;100.00
36062;BME280;22123;52.412;20.970;2023-04-01T04:26:27;98702.47;;;8.91;100.00
36062;BME280;22123;52.412;20.970;2023-04-01T04:28:54;98651.41;;;8.51;100.00
36062;BME280;22123;52.412;20.970;2023-04-01T04:31:22;98734.47;;;8.99;100.00
36062;BME280;22123;52.412;20.970;2023-04-01T04:33:48;98724.97;;;8.97;100.00
36062;BME280;22123;52.412;20.970;2023-04-01T04:36:14;98716.09;;;8.90;100.00
36062;BME280;22123;52.412;20.970;2023-04-01T04:38:40;98724.75;;;8.98;100.00
36062;BME280;22123;52.412;20.970;2023-04-01T04:41:11;98685.50;;;8.70;100.00
36062;BME280;22123;52.412;20.970;2023-04-01T04:43:37;98704.91;;;8.73;100.00
36062;BME280;22123;52.412;20.970;2023-04-01T04:46:06;98707.34;;;8.67;100.00
36062;BME280;22123;52.412;20.970;2023-04-01T04:48:31;98702.00;;;8.61;100.00
36062;BME280;22123;52.412;20.970;2023-04-01T04:50:57;98567.88;;;7.72;100.00
36062;BME280;22123;52.412;20.970;2023-04-01T04:53:23;98729.84;;;8.66;100.00
36062;BME280;22123;52.412;20.970;2023-04-01T04:55:49;98744.50;;;8.64;100.00
36062;BME280;22123;52.412;20.970;2023-04-01T04:58:16;98703.13;;;8.38;100.00
36062;BME280;22123;52.412;20.970;2023-04-01T05:00:42;98739.53;;;8.61;100.00
36062;BME280;22123;52.412;20.970;2023-04-01T05:03:09;98737.47;;;8.56;100.00
36062;BME280;22123;52.412;20.970;2023-04-01T05:05:35;98697.75;;;8.31;100.00
36062;BME280;22123;52.412;20.970;2023-04-01T05:08:01;98733.53;;;8.52;100.00
36062;BME280;22123;52.412;20.970;2023-04-01T05:10:27;98733.28;;;8.47;100.00
36062;BME280;22123;52.412;20.970;2023-04-01T05:12:53;98693.81;;;8.27;100.00
36062;BME280;22123;52.412;20.970;2023-04-01T05:15:19;98691.91;;;8.21;100.00
36062;BME280;22123;52.412;20.970;2023-04-01T05:17:45;98747.16;;;8.50;100.00
36062;BME280;22123;52.412;20.970;2023-04-01T05:20:12;98740.53;;;8.46;100.00
36062;BME280;22123;52.412;20.970;2023-04-01T05:22:39;98712.34;;;8.22;100.00
36062;BME280;22123;52.412;20.970;2023-04-01T05:25:05;98751.25;;;8.46;100.00
36062;BME280;22123;52.412;20.970;2023-04-01T05:27:31;98713.19;;;8.23;100.00
36062;BME280;22123;52.412;20.970;2023-04-01T05:29:57;98739.59;;;8.32;100.00
36062;BME280;22123;52.412;20.970;2023-04-01T05:32:23;98748.28;;;8.34;100.00
36062;BME280;22123;52.412;20.970;2023-04-01T05:34:53;98753.47;;;8.43;100.00
36062;BME280;22123;52.412;20.970;2023-04-01T05:37:19;98742.06;;;8.34;100.00
36062;BME280;22123;52.412;20.970;2023-04-01T05:39:45;98734.81;;;8.21;100.00
36062;BME280;22123;52.412;20.970;2023-04-01T05:42:11;98733.38;;;8.25;100.00
36062;BME280;22123;52.412;20.970;2023-04-01T05:44:37;98738.78;;;8.32;100.00
36062;BME280;22123;52.412;20.970;2023-04-01T05:47:03;98761.34;;;8.44;100.00
36062;BME280;22123;52.412;20.970;2023-04-01T05:49:29;98711.88;;;8.12;100.00
36062;BME280;22123;52.412;20.970;2023-04-01T05:51:56;98731.75;;;8.24;100.00
36062;BME280;22123;52.412;20.970;2023-04-01T05:54:22;98732.75;;;8.23;100.00
36062;BME280;22123;52.412;20.970;2023-04-01T05:56:48;98750.13;;;8.34;100.00
36062;BME280;22123;52.412;20.970;2023-04-01T05:59:14;98737.94;;;8.25;100.00
36062;BME280;22123;52.412;20.970;2023-04-01T06:01:40;98752.84;;;8.41;100.00
36062;BME280;22123;52.412;20.970;2023-04-01T06:04:06;98738.41;;;8.42;100.00
36062;BME280;22123;52.412;20.970;2023-04-01T06:06:32;98762.47;;;8.63;100.00
36062;BME280;22123;52.412;20.970;2023-04-01T06:09:10;98764.28;;;8.63;100.00
36062;BME280;22123;52.412;20.970;2023-04-01T06:11:51;98766.00;;;8.77;100.00
36062;BME280;22123;52.412;20.970;2023-04-01T06:14:40;98767.47;;;8.86;100.00
36062;BME280;22123;52.412;20.970;2023-04-01T06:30:52;98756.75;;;8.93;100.00
36062;BME280;22123;52.412;20.970;2023-04-01T06:34:05;98763.59;;;9.02;100.00
36062;BME280;22123;52.412;20.970;2023-04-01T06:36:36;98792.94;;;9.24;100.00
36062;BME280;22123;52.412;20.970;2023-04-01T06:48:12;98707.00;;;9.31;100.00
36062;BME280;22123;52.412;20.970;2023-04-01T06:56:19;98785.31;;;9.88;100.00
36062;BME280;22123;52.412;20.970;2023-04-01T06:58:50;98756.59;;;9.68;100.00
36062;BME280;22123;52.412;20.970;2023-04-01T07:01:29;98755.56;;;9.63;100.00
36062;BME280;22123;52.412;20.970;2023-04-01T07:04:02;98792.53;;;9.87;100.00
36062;BME280;22123;52.412;20.970;2023-04-01T07:09:12;98775.16;;;9.83;100.00
36062;BME280;22123;52.412;20.970;2023-04-01T07:11:40;98796.44;;;10.05;100.00
36062;BME280;22123;52.412;20.970;2023-04-01T07:14:13;98791.44;;;10.15;100.00
36062;BME280;22123;52.412;20.970;2023-04-01T07:16:48;98772.22;;;10.12;100.00
36062;BME280;22123;52.412;20.970;2023-04-01T07:19:30;98798.91;;;10.13;100.00
36062;BME280;22123;52.412;20.970;2023-04-01T07:22:12;98799.94;;;10.19;100.00
36062;BME280;22123;52.412;20.970;2023-04-01T07:24:44;98767.69;;;10.05;100.00
36062;BME280;22123;52.412;20.970;2023-04-01T07:27:12;98781.56;;;9.96;100.00
36062;BME280;22123;52.412;20.970;2023-04-01T07:29:39;98797.88;;;10.07;100.00
36062;BME280;22123;52.412;20.970;2023-04-01T07:32:12;98781.97;;;9.99;100.00
36062;BME280;22123;52.412;20.970;2023-04-01T07:34:55;98790.63;;;10.15;100.00
36062;BME280;22123;52.412;20.970;2023-04-01T07:37:37;98789.78;;;10.27;100.00
36062;BME280;22123;52.412;20.970;2023-04-01T07:45:38;98754.47;;;10.63;100.00
36062;BME280;22123;52.412;20.970;2023-04-01T07:53:46;98791.41;;;10.94;100.00
36062;BME280;22123;52.412;20.970;2023-04-01T07:59:25;98799.84;;;10.98;100.00
36062;BME280;22123;52.412;20.970;2023-04-01T08:02:03;98795.25;;;11.05;100.00
36062;BME280;22123;52.412;20.970;2023-04-01T08:15:19;98811.88;;;12.09;100.00
36062;BME280;22123;52.412;20.970;2023-04-01T08:18:11;98806.00;;;12.19;100.00
36062;BME280;22123;52.412;20.970;2023-04-01T08:20:53;98812.22;;;12.20;100.00
36062;BME280;22123;52.412;20.970;2023-04-01T08:23:33;98810.56;;;12.18;100.00
36062;BME280;22123;52.412;20.970;2023-04-01T08:28:36;98810.94;;;12.22;100.00
36062;BME280;22123;52.412;20.970;2023-04-01T08:31:35;98811.91;;;12.28;100.00
36062;BME280;22123;52.412;20.970;2023-04-01T08:34:05;98786.81;;;11.83;100.00
36062;BME280;22123;52.412;20.970;2023-04-01T08:36:37;98807.00;;;11.74;100.00
36062;BME280;22123;52.412;20.970;2023-04-01T08:39:07;98819.22;;;11.52;100.00
36062;BME280;22123;52.412;20.970;2023-04-01T08:53:06;98819.91;;;10.63;100.00
36062;BME280;22123;52.412;20.970;2023-04-01T09:06:29;98836.34;;;12.14;100.00
36062;BME280;22123;52.412;20.970;2023-04-01T09:09:21;98837.03;;;12.47;100.00
36062;BME280;22123;52.412;20.970;2023-04-01T09:17:38;98822.69;;;11.84;100.00
36062;BME280;22123;52.412;20.970;2023-04-01T09:37:18;98835.56;;;11.82;100.00
36062;BME280;22123;52.412;20.970;2023-04-01T09:42:42;98860.34;;;11.97;100.00
36062;BME280;22123;52.412;20.970;2023-04-01T09:50:55;98854.88;;;12.48;100.00
36062;BME280;22123;52.412;20.970;2023-04-01T09:58:42;98858.69;;;12.22;100.00
36062;BME280;22123;52.412;20.970;2023-04-01T10:52:12;98863.19;;;14.05;100.00
36062;BME280;22123;52.412;20.970;2023-04-01T10:57:55;98864.25;;;13.50;100.00
36062;BME280;22123;52.412;20.970;2023-04-01T11:25:09;98884.13;;;12.51;100.00
36062;BME280;22123;52.412;20.970;2023-04-01T11:27:49;98876.09;;;12.63;100.00
36062;BME280;22123;52.412;20.970;2023-04-01T11:55:19;98899.16;;;12.22;100.00
36062;BME280;22123;52.412;20.970;2023-04-01T11:58:11;98885.84;;;12.02;100.00
36062;BME280;22123;52.412;20.970;2023-04-01T12:01:08;98888.53;;;12.02;100.00
36062;BME280;22123;52.412;20.970;2023-04-01T12:04:05;98893.59;;;11.84;100.00
36062;BME280;22123;52.412;20.970;2023-04-01T12:06:51;98892.41;;;11.80;100.00
36062;BME280;22123;52.412;20.970;2023-04-01T12:12:24;98878.66;;;11.57;100.00
36062;BME280;22123;52.412;20.970;2023-04-01T12:17:51;98883.66;;;11.85;100.00
36062;BME280;22123;52.412;20.970;2023-04-01T12:20:30;98903.75;;;11.89;100.00
36062;BME280;22123;52.412;20.970;2023-04-01T12:31:42;98874.09;;;11.25;100.00
36062;BME280;22123;52.412;20.970;2023-04-01T12:37:16;98864.75;;;11.28;100.00
36062;BME280;22123;52.412;20.970;2023-04-01T12:45:02;98918.25;;;11.63;100.00
36062;BME280;22123;52.412;20.970;2023-04-01T12:47:43;98913.03;;;11.61;100.00
36062;BME280;22123;52.412;20.970;2023-04-01T12:55:48;98913.75;;;11.50;100.00
36062;BME280;22123;52.412;20.970;2023-04-01T13:01:25;98929.72;;;11.52;100.00
36062;BME280;22123;52.412;20.970;2023-04-01T13:09:31;98931.72;;;11.63;100.00
36062;BME280;22123;52.412;20.970;2023-04-01T13:12:35;98936.47;;;11.61;100.00
36062;BME280;22123;52.412;20.970;2023-04-01T13:17:50;98897.00;;;10.96;100.00
36062;BME280;22123;52.412;20.970;2023-04-01T13:20:56;98920.25;;;10.84;100.00
36062;BME280;22123;52.412;20.970;2023-04-01T13:23:47;98948.81;;;10.91;100.00
36062;BME280;22123;52.412;20.970;2023-04-01T13:29:14;98928.88;;;10.99;100.00
36062;BME280;22123;52.412;20.970;2023-04-01T13:37:30;98958.66;;;11.18;100.00
36062;BME280;22123;52.412;20.970;2023-04-01T13:51:37;98927.78;;;10.55;100.00
36062;BME280;22123;52.412;20.970;2023-04-01T14:11:16;99018.03;;;10.57;100.00
36062;BME280;22123;52.412;20.970;2023-04-01T14:13:52;99010.97;;;10.56;100.00
36062;BME280;22123;52.412;20.970;2023-04-01T14:20:10;99013.81;;;10.28;100.00
36062;BME280;22123;52.412;20.970;2023-04-01T14:22:56;99012.78;;;10.16;100.00
36062;BME280;22123;52.412;20.970;2023-04-01T14:39:15;99025.75;;;9.92;100.00
36062;BME280;22123;52.412;20.970;2023-04-01T14:41:48;99029.91;;;9.88;100.00
36062;BME280;22123;52.412;20.970;2023-04-01T14:46:58;99036.50;;;9.85;100.00
36062;BME280;22123;52.412;20.970;2023-04-01T14:49:41;98970.22;;;9.37;100.00
36062;BME280;22123;52.412;20.970;2023-04-01T14:54:38;99045.41;;;9.86;100.00
36062;BME280;22123;52.412;20.970;2023-04-01T14:57:12;99047.88;;;9.87;100.00
36062;BME280;22123;52.412;20.970;2023-04-01T14:59:47;99042.09;;;9.84;100.00
36062;BME280;22123;52.412;20.970;2023-04-01T15:13:00;99074.63;;;9.54;100.00
36062;BME280;22123;52.412;20.970;2023-04-01T15:20:00;99079.97;;;9.47;100.00
36062;BME280;22123;52.412;20.970;2023-04-01T15:22:26;99073.59;;;9.55;100.00
36062;BME280;22123;52.412;20.970;2023-04-01T15:27:51;99074.03;;;9.58;100.00
36062;BME280;22123;52.412;20.970;2023-04-01T15:30:29;99094.59;;;9.80;100.00
36062;BME280;22123;52.412;20.970;2023-04-01T15:35:45;99107.56;;;9.76;100.00
36062;BME280;22123;52.412;20.970;2023-04-01T15:43:47;99111.25;;;9.62;100.00
36062;BME280;22123;52.412;20.970;2023-04-01T15:46:45;99115.16;;;9.59;100.00
36062;BME280;22123;52.412;20.970;2023-04-01T16:03:33;99140.78;;;9.27;100.00
36062;BME280;22123;52.412;20.970;2023-04-01T16:11:53;99137.94;;;9.07;100.00
36062;BME280;22123;52.412;20.970;2023-04-01T16:15:25;99161.59;;;9.18;100.00
36062;BME280;22123;52.412;20.970;2023-04-01T16:20:20;99156.25;;;8.96;100.00
36062;BME280;22123;52.412;20.970;2023-04-01T16:25:43;99181.94;;;9.05;100.00
36062;BME280;22123;52.412;20.970;2023-04-01T16:33:58;99158.41;;;8.79;100.00
36062;BME280;22123;52.412;20.970;2023-04-01T16:36:54;99196.38;;;9.04;100.00
36062;BME280;22123;52.412;20.970;2023-04-01T16:42:22;99201.94;;;9.03;100.00
36062;BME280;22123;52.412;20.970;2023-04-01T16:47:36;99221.91;;;8.94;100.00
36062;BME280;22123;52.412;20.970;2023-04-01T16:50:14;99225.59;;;8.93;100.00
36062;BME280;22123;52.412;20.970;2023-04-01T16:55:49;99161.66;;;8.38;100.00
36062;BME280;22123;52.412;20.970;2023-04-01T16:58:25;99224.88;;;8.62;100.00
36062;BME280;22123;52.412;20.970;2023-04-01T17:00:58;99227.47;;;8.70;100.00
36062;BME280;22123;52.412;20.970;2023-04-01T17:03:57;99248.06;;;8.70;100.00
36062;BME280;22123;52.412;20.970;2023-04-01T17:06:48;99260.41;;;8.64;100.00
36062;BME280;22123;52.412;20.970;2023-04-01T17:12:17;99259.47;;;8.57;100.00
36062;BME280;22123;52.412;20.970;2023-04-01T17:15:07;99264.22;;;8.55;100.00
36062;BME280;22123;52.412;20.970;2023-04-01T17:23:00;99277.16;;;8.36;100.00
36062;BME280;22123;52.412;20.970;2023-04-01T17:25:51;99284.56;;;8.34;100.00
36062;BME280;22123;52.412;20.970;2023-04-01T17:31:37;99259.25;;;8.07;100.00
36062;BME280;22123;52.412;20.970;2023-04-01T17:34:15;99297.44;;;8.24;100.00
36062;BME280;22123;52.412;20.970;2023-04-01T17:45:28;99312.69;;;8.09;100.00
36062;BME280;22123;52.412;20.970;2023-04-01T17:48:51;99321.34;;;8.11;100.00
36062;BME280;22123;52.412;20.970;2023-04-01T17:56:31;99335.13;;;8.08;100.00
36062;BME280;22123;52.412;20.970;2023-04-01T18:01:51;99309.06;;;7.87;100.00
36062;BME280;22123;52.412;20.970;2023-04-01T18:10:19;99350.56;;;8.06;100.00
36062;BME280;22123;52.412;20.970;2023-04-01T18:21:46;99367.22;;;8.01;100.00
36062;BME280;22123;52.412;20.970;2023-04-01T18:26:42;99376.81;;;7.95;100.00
36062;BME280;22123;52.412;20.970;2023-04-01T18:32:31;99306.94;;;7.44;100.00
36062;BME280;22123;52.412;20.970;2023-04-01T18:35:14;99396.41;;;7.96;100.00
36062;BME280;22123;52.412;20.970;2023-04-01T18:38:15;99404.63;;;7.94;100.00
36062;BME280;22123;52.412;20.970;2023-04-01T18:40:47;99377.66;;;7.73;100.00
36062;BME280;22123;52.412;20.970;2023-04-01T18:46:45;99397.00;;;7.83;100.00
36062;BME280;22123;52.412;20.970;2023-04-01T18:49:20;99414.03;;;7.90;100.00
36062;BME280;22123;52.412;20.970;2023-04-01T18:54:33;99372.56;;;7.63;100.00
36062;BME280;22123;52.412;20.970;2023-04-01T18:57:16;99393.94;;;7.71;100.00
36062;BME280;22123;52.412;20.970;2023-04-01T18:59:46;99413.13;;;7.75;100.00
36062;BME280;22123;52.412;20.970;2023-04-01T19:02:37;99427.78;;;7.87;100.00
36062;BME280;22123;52.412;20.970;2023-04-01T19:05:14;99409.38;;;7.69;100.00
36062;BME280;22123;52.412;20.970;2023-04-01T19:07:55;99391.56;;;7.53;100.00
36062;BME280;22123;52.412;20.970;2023-04-01T19:10:40;99431.19;;;7.81;100.00
36062;BME280;22123;52.412;20.970;2023-04-01T19:16:00;99437.19;;;7.83;100.00
36062;BME280;22123;52.412;20.970;2023-04-01T19:18:56;99434.53;;;7.83;100.00
36062;BME280;22123;52.412;20.970;2023-04-01T19:21:37;99415.22;;;7.64;100.00
36062;BME280;22123;52.412;20.970;2023-04-01T19:30:01;99468.47;;;7.68;100.00
36062;BME280;22123;52.412;20.970;2023-04-01T19:38:25;99416.16;;;7.25;100.00
36062;BME280;22123;52.412;20.970;2023-04-01T19:41:04;99449.56;;;7.38;100.00
36062;BME280;22123;52.412;20.970;2023-04-01T19:43:53;99435.25;;;7.22;100.00
36062;BME280;22123;52.412;20.970;2023-04-01T19:52:15;99491.84;;;7.51;100.00
36062;BME280;22123;52.412;20.970;2023-04-01T19:58:12;99497.03;;;7.52;100.00
36062;BME280;22123;52.412;20.970;2023-04-01T20:00:42;99503.03;;;7.54;100.00
36062;BME280;22123;52.412;20.970;2023-04-01T20:06:04;99491.44;;;7.30;100.00
36062;BME280;22123;52.412;20.970;2023-04-01T20:11:35;99520.63;;;7.48;100.00
36062;BME280;22123;52.412;20.970;2023-04-01T20:14:12;99464.75;;;7.14;100.00
36062;BME280;22123;52.412;20.970;2023-04-01T20:17:01;99522.16;;;7.43;100.00
36062;BME280;22123;52.412;20.970;2023-04-01T20:19:41;99526.88;;;7.41;100.00
36062;BME280;22123;52.412;20.970;2023-04-01T20:25:13;99528.41;;;7.35;100.00
36062;BME280;22123;52.412;20.970;2023-04-01T20:27:47;99536.59;;;7.34;100.00
36062;BME280;22123;52.412;20.970;2023-04-01T20:36:29;99540.81;;;7.28;100.00
36062;BME280;22123;52.412;20.970;2023-04-01T20:50:28;99553.03;;;7.22;100.00
36062;BME280;22123;52.412;20.970;2023-04-01T20:53:11;99539.03;;;7.12;100.00
36062;BME280;22123;52.412;20.970;2023-04-01T21:01:15;99491.66;;;6.73;100.00
36062;BME280;22123;52.412;20.970;2023-04-01T21:09:39;99559.97;;;7.08;100.00
36062;BME280;22123;52.412;20.970;2023-04-01T21:12:43;99565.66;;;6.97;100.00
36062;BME280;22123;52.412;20.970;2023-04-01T21:15:30;99574.69;;;7.04;100.00
36062;BME280;22123;52.412;20.970;2023-04-01T21:23:19;99585.22;;;7.06;100.00
36062;BME280;22123;52.412;20.970;2023-04-01T21:34:42;99591.41;;;7.06;100.00
36062;BME280;22123;52.412;20.970;2023-04-01T21:45:27;99611.31;;;7.04;100.00
36062;BME280;22123;52.412;20.970;2023-04-01T21:48:07;99610.66;;;7.02;100.00
36062;BME280;22123;52.412;20.970;2023-04-01T21:50:55;99618.69;;;7.02;100.00
36062;BME280;22123;52.412;20.970;2023-04-01T22:04:58;99634.41;;;6.88;100.00
36062;BME280;22123;52.412;20.970;2023-04-01T22:07:29;99613.69;;;6.66;100.00
36062;BME280;22123;52.412;20.970;2023-04-01T22:13:07;99612.34;;;6.61;100.00
36062;BME280;22123;52.412;20.970;2023-04-01T22:18:42;99629.06;;;6.72;100.00
36062;BME280;22123;52.412;20.970;2023-04-01T22:21:07;99653.31;;;6.87;100.00
36062;BME280;22123;52.412;20.970;2023-04-01T22:23:46;99607.19;;;6.52;100.00
36062;BME280;22123;52.412;20.970;2023-04-01T22:26:23;99624.72;;;6.63;100.00
36062;BME280;22123;52.412;20.970;2023-04-01T22:29:10;99612.84;;;6.49;100.00
36062;BME280;22123;52.412;20.970;2023-04-01T22:31:48;99652.97;;;6.73;100.00
36062;BME280;22123;52.412;20.970;2023-04-01T22:37:01;99619.84;;;6.41;100.00
36062;BME280;22123;52.412;20.970;2023-04-01T22:42:59;99665.66;;;6.63;100.00